sensor_id;sensor_type;location;lat;lon;timestamp;P1;durP1;ratioP1;P2;durP2;ratioP2
16407;SDS011;8313;49.894;8.084;2023-02-17T00:00:57;19.67;;;13.23;;
16407;SDS011;8313;49.894;8.084;2023-02-17T00:03:23;23.17;;;14.47;;
16407;SDS011;8313;49.894;8.084;2023-02-17T00:05:49;20.90;;;13.63;;
16407;SDS011;8313;49.894;8.084;2023-02-17T00:08:15;21.87;;;13.83;;
16407;SDS011;8313;49.894;8.084;2023-02-17T00:10:41;20.87;;;14.10;;
16407;SDS011;8313;49.894;8.084;2023-02-17T00:13:07;28.37;;;15.70;;
16407;SDS011;8313;49.894;8.084;2023-02-17T00:15:33;19.60;;;13.50;;
16407;SDS011;8313;49.894;8.084;2023-02-17T00:17:58;26.10;;;16.47;;
16407;SDS011;8313;49.894;8.084;2023-02-17T00:20:24;24.73;;;13.90;;
16407;SDS011;8313;49.894;8.084;2023-02-17T00:22:49;20.63;;;14.50;;
16407;SDS011;8313;49.894;8.084;2023-02-17T00:25:15;24.30;;;14.53;;
16407;SDS011;8313;49.894;8.084;2023-02-17T00:27:41;23.23;;;15.03;;
16407;SDS011;8313;49.894;8.084;2023-02-17T00:30:07;27.77;;;17.80;;
16407;SDS011;8313;49.894;8.084;2023-02-17T00:32:33;32.53;;;21.23;;
16407;SDS011;8313;49.894;8.084;2023-02-17T00:34:59;29.80;;;20.40;;
16407;SDS011;8313;49.894;8.084;2023-02-17T00:37:24;31.97;;;19.63;;
16407;SDS011;8313;49.894;8.084;2023-02-17T00:39:50;33.50;;;19.90;;
16407;SDS011;8313;49.894;8.084;2023-02-17T00:42:17;29.30;;;16.70;;
16407;SDS011;8313;49.894;8.084;2023-02-17T00:44:43;26.77;;;17.27;;
16407;SDS011;8313;49.894;8.084;2023-02-17T00:47:08;27.50;;;16.70;;
16407;SDS011;8313;49.894;8.084;2023-02-17T00:49:34;26.43;;;16.33;;
16407;SDS011;8313;49.894;8.084;2023-02-17T00:52:00;24.27;;;16.20;;
16407;SDS011;8313;49.894;8.084;2023-02-17T00:54:26;27.10;;;16.23;;
16407;SDS011;8313;49.894;8.084;2023-02-17T00:56:53;28.70;;;16.13;;
16407;SDS011;8313;49.894;8.084;2023-02-17T00:59:18;28.27;;;16.97;;
16407;SDS011;8313;49.894;8.084;2023-02-17T01:01:44;23.00;;;12.80;;
16407;SDS011;8313;49.894;8.084;2023-02-17T01:04:10;14.43;;;10.30;;
16407;SDS011;8313;49.894;8.084;2023-02-17T01:06:37;13.63;;;10.10;;
16407;SDS011;8313;49.894;8.084;2023-02-17T01:09:06;15.87;;;10.03;;
16407;SDS011;8313;49.894;8.084;2023-02-17T01:11:34;12.40;;;8.40;;
16407;SDS011;8313;49.894;8.084;2023-02-17T01:14:00;15.00;;;8.40;;
16407;SDS011;8313;49.894;8.084;2023-02-17T01:16:30;10.10;;;7.47;;
16407;SDS011;8313;49.894;8.084;2023-02-17T01:18:59;11.63;;;8.17;;
16407;SDS011;8313;49.894;8.084;2023-02-17T01:21:30;10.63;;;7.47;;
16407;SDS011;8313;49.894;8.084;2023-02-17T01:23:57;14.07;;;8.67;;
16407;SDS011;8313;49.894;8.084;2023-02-17T01:26:27;11.13;;;6.83;;
16407;SDS011;8313;49.894;8.084;2023-02-17T01:28:54;14.40;;;9.07;;
16407;SDS011;8313;49.894;8.084;2023-02-17T01:31:20;12.90;;;8.10;;
16407;SDS011;8313;49.894;8.084;2023-02-17T01:33:47;12.70;;;7.60;;
16407;SDS011;8313;49.894;8.084;2023-02-17T01:36:14;11.93;;;8.10;;
16407;SDS011;8313;49.894;8.084;2023-02-17T01:38:42;12.67;;;8.40;;
16407;SDS011;8313;49.894;8.084;2023-02-17T01:41:10;14.20;;;7.87;;
16407;SDS011;8313;49.894;8.084;2023-02-17T01:43:38;14.67;;;8.73;;
16407;SDS011;8313;49.894;8.084;2023-02-17T01:46:05;11.20;;;7.40;;
16407;SDS011;8313;49.894;8.084;2023-02-17T01:48:43;15.30;;;9.97;;
16407;SDS011;8313;49.894;8.084;2023-02-17T01:51:14;11.37;;;7.13;;
16407;SDS011;8313;49.894;8.084;2023-02-17T01:53:49;13.80;;;7.90;;
16407;SDS011;8313;49.894;8.084;2023-02-17T01:56:25;13.60;;;7.60;;
16407;SDS011;8313;49.894;8.084;2023-02-17T01:58:57;14.87;;;8.60;;
16407;SDS011;8313;49.894;8.084;2023-02-17T02:01:27;14.60;;;9.00;;
16407;SDS011;8313;49.894;8.084;2023-02-17T02:03:54;15.30;;;8.63;;
16407;SDS011;8313;49.894;8.084;2023-02-17T02:06:22;13.03;;;7.87;;
16407;SDS011;8313;49.894;8.084;2023-02-17T02:11:15;12.10;;;7.83;;
16407;SDS011;8313;49.894;8.084;2023-02-17T02:13:44;10.90;;;7.20;;
16407;SDS011;8313;49.894;8.084;2023-02-17T02:21:42;13.07;;;8.60;;
16407;SDS011;8313;49.894;8.084;2023-02-17T02:32:38;11.43;;;6.57;;
16407;SDS011;8313;49.894;8.084;2023-02-17T02:35:27;7.97;;;6.67;;
16407;SDS011;8313;49.894;8.084;2023-02-17T02:38:05;12.10;;;7.47;;
16407;SDS011;8313;49.894;8.084;2023-02-17T02:40:45;9.20;;;6.80;;
16407;SDS011;8313;49.894;8.084;2023-02-17T02:43:14;10.97;;;6.80;;
16407;SDS011;8313;49.894;8.084;2023-02-17T02:45:40;9.97;;;6.60;;
16407;SDS011;8313;49.894;8.084;2023-02-17T02:48:06;9.07;;;6.70;;
16407;SDS011;8313;49.894;8.084;2023-02-17T02:53:20;11.00;;;7.63;;
16407;SDS011;8313;49.894;8.084;2023-02-17T03:02:06;10.03;;;7.07;;
16407;SDS011;8313;49.894;8.084;2023-02-17T03:07:58;11.17;;;8.03;;
16407;SDS011;8313;49.894;8.084;2023-02-17T03:10:47;9.60;;;7.00;;
16407;SDS011;8313;49.894;8.084;2023-02-17T03:13:15;11.20;;;7.10;;
16407;SDS011;8313;49.894;8.084;2023-02-17T03:15:42;10.50;;;7.73;;
16407;SDS011;8313;49.894;8.084;2023-02-17T03:18:09;11.03;;;7.17;;
16407;SDS011;8313;49.894;8.084;2023-02-17T03:20:36;14.13;;;7.00;;
16407;SDS011;8313;49.894;8.084;2023-02-17T03:23:26;8.63;;;6.50;;
16407;SDS011;8313;49.894;8.084;2023-02-17T03:25:51;10.37;;;7.07;;
16407;SDS011;8313;49.894;8.084;2023-02-17T03:28:17;16.63;;;7.50;;
16407;SDS011;8313;49.894;8.084;2023-02-17T03:30:43;12.43;;;7.57;;
16407;SDS011;8313;49.894;8.084;2023-02-17T03:33:09;17.00;;;7.77;;
16407;SDS011;8313;49.894;8.084;2023-02-17T03:35:34;10.17;;;7.23;;
16407;SDS011;8313;49.894;8.084;2023-02-17T03:38:00;13.43;;;6.93;;
16407;SDS011;8313;49.894;8.084;2023-02-17T03:40:26;11.53;;;6.40;;
16407;SDS011;8313;49.894;8.084;2023-02-17T03:42:52;10.53;;;7.23;;
16407;SDS011;8313;49.894;8.084;2023-02-17T03:45:17;9.60;;;6.17;;
16407;SDS011;8313;49.894;8.084;2023-02-17T03:47:43;13.43;;;7.47;;
16407;SDS011;8313;49.894;8.084;2023-02-17T03:50:09;11.10;;;6.63;;
16407;SDS011;8313;49.894;8.084;2023-02-17T03:52:35;10.10;;;7.20;;
16407;SDS011;8313;49.894;8.084;2023-02-17T03:55:00;6.43;;;5.50;;
16407;SDS011;8313;49.894;8.084;2023-02-17T03:57:26;8.60;;;6.10;;
16407;SDS011;8313;49.894;8.084;2023-02-17T03:59:52;11.00;;;6.83;;
16407;SDS011;8313;49.894;8.084;2023-02-17T04:02:17;7.93;;;5.53;;
16407;SDS011;8313;49.894;8.084;2023-02-17T04:04:43;10.63;;;6.63;;
16407;SDS011;8313;49.894;8.084;2023-02-17T04:07:09;6.90;;;5.80;;
16407;SDS011;8313;49.894;8.084;2023-02-17T04:09:34;10.43;;;5.90;;
16407;SDS011;8313;49.894;8.084;2023-02-17T04:12:00;8.50;;;6.43;;
16407;SDS011;8313;49.894;8.084;2023-02-17T04:14:25;8.93;;;5.10;;
16407;SDS011;8313;49.894;8.084;2023-02-17T04:16:51;9.93;;;6.33;;
16407;SDS011;8313;49.894;8.084;2023-02-17T04:19:17;8.90;;;5.00;;
16407;SDS011;8313;49.894;8.084;2023-02-17T04:21:42;8.60;;;6.23;;
16407;SDS011;8313;49.894;8.084;2023-02-17T04:24:08;7.17;;;4.90;;
16407;SDS011;8313;49.894;8.084;2023-02-17T04:26:34;7.90;;;5.93;;
16407;SDS011;8313;49.894;8.084;2023-02-17T04:28:59;7.40;;;5.43;;
16407;SDS011;8313;49.894;8.084;2023-02-17T04:31:28;8.30;;;5.67;;
16407;SDS011;8313;49.894;8.084;2023-02-17T04:33:54;6.93;;;4.40;;
16407;SDS011;8313;49.894;8.084;2023-02-17T04:36:20;6.30;;;4.33;;
16407;SDS011;8313;49.894;8.084;2023-02-17T04:38:46;6.27;;;4.57;;
16407;SDS011;8313;49.894;8.084;2023-02-17T04:41:11;6.77;;;4.63;;
16407;SDS011;8313;49.894;8.084;2023-02-17T04:43:37;5.47;;;4.40;;
16407;SDS011;8313;49.894;8.084;2023-02-17T04:46:03;7.30;;;4.70;;
16407;SDS011;8313;49.894;8.084;2023-02-17T04:48:28;5.33;;;4.30;;
16407;SDS011;8313;49.894;8.084;2023-02-17T04:50:54;5.63;;;4.27;;
16407;SDS011;8313;49.894;8.084;2023-02-17T04:53:20;8.60;;;4.37;;
16407;SDS011;8313;49.894;8.084;2023-02-17T04:55:48;6.43;;;4.53;;
16407;SDS011;8313;49.894;8.084;2023-02-17T04:58:16;5.40;;;3.60;;
16407;SDS011;8313;49.894;8.084;2023-02-17T05:00:42;4.43;;;3.80;;
16407;SDS011;8313;49.894;8.084;2023-02-17T05:03:08;6.23;;;3.90;;
16407;SDS011;8313;49.894;8.084;2023-02-17T05:05:34;5.57;;;4.30;;
16407;SDS011;8313;49.894;8.084;2023-02-17T05:07:59;7.93;;;4.27;;
16407;SDS011;8313;49.894;8.084;2023-02-17T05:10:25;5.93;;;4.17;;
16407;SDS011;8313;49.894;8.084;2023-02-17T05:12:51;3.87;;;3.30;;
16407;SDS011;8313;49.894;8.084;2023-02-17T05:15:16;5.93;;;4.00;;
16407;SDS011;8313;49.894;8.084;2023-02-17T05:17:42;4.80;;;3.60;;
16407;SDS011;8313;49.894;8.084;2023-02-17T05:20:08;6.97;;;4.37;;
16407;SDS011;8313;49.894;8.084;2023-02-17T05:22:34;6.60;;;4.27;;
16407;SDS011;8313;49.894;8.084;2023-02-17T05:25:00;3.63;;;3.33;;
16407;SDS011;8313;49.894;8.084;2023-02-17T05:27:26;5.27;;;4.10;;
16407;SDS011;8313;49.894;8.084;2023-02-17T05:29:51;5.83;;;4.00;;
16407;SDS011;8313;49.894;8.084;2023-02-17T05:32:17;6.33;;;3.83;;
16407;SDS011;8313;49.894;8.084;2023-02-17T05:34:43;4.33;;;3.60;;
16407;SDS011;8313;49.894;8.084;2023-02-17T05:37:09;6.00;;;4.13;;
16407;SDS011;8313;49.894;8.084;2023-02-17T05:39:35;6.97;;;4.63;;
16407;SDS011;8313;49.894;8.084;2023-02-17T05:42:00;5.90;;;3.70;;
16407;SDS011;8313;49.894;8.084;2023-02-17T05:44:26;4.27;;;3.57;;
16407;SDS011;8313;49.894;8.084;2023-02-17T05:46:52;5.77;;;3.90;;
16407;SDS011;8313;49.894;8.084;2023-02-17T05:49:18;5.30;;;3.93;;
16407;SDS011;8313;49.894;8.084;2023-02-17T05:51:43;6.03;;;3.50;;
16407;SDS011;8313;49.894;8.084;2023-02-17T05:54:09;6.93;;;4.47;;
16407;SDS011;8313;49.894;8.084;2023-02-17T05:56:34;5.40;;;3.10;;
16407;SDS011;8313;49.894;8.084;2023-02-17T05:59:00;6.17;;;4.23;;
16407;SDS011;8313;49.894;8.084;2023-02-17T06:01:26;6.00;;;4.27;;
16407;SDS011;8313;49.894;8.084;2023-02-17T06:03:52;6.10;;;3.70;;
16407;SDS011;8313;49.894;8.084;2023-02-17T06:06:17;8.20;;;4.00;;
16407;SDS011;8313;49.894;8.084;2023-02-17T06:08:43;5.90;;;3.00;;
16407;SDS011;8313;49.894;8.084;2023-02-17T06:11:09;6.43;;;4.17;;
16407;SDS011;8313;49.894;8.084;2023-02-17T06:13:35;7.37;;;4.10;;
16407;SDS011;8313;49.894;8.084;2023-02-17T06:16:00;5.77;;;4.10;;
16407;SDS011;8313;49.894;8.084;2023-02-17T06:18:26;3.30;;;3.00;;
16407;SDS011;8313;49.894;8.084;2023-02-17T06:20:55;5.50;;;3.90;;
16407;SDS011;8313;49.894;8.084;2023-02-17T06:23:22;3.60;;;3.10;;
16407;SDS011;8313;49.894;8.084;2023-02-17T06:25:49;4.47;;;3.77;;
16407;SDS011;8313;49.894;8.084;2023-02-17T06:28:14;5.67;;;3.90;;
16407;SDS011;8313;49.894;8.084;2023-02-17T06:30:40;5.87;;;4.30;;
16407;SDS011;8313;49.894;8.084;2023-02-17T06:33:06;5.47;;;3.73;;
16407;SDS011;8313;49.894;8.084;2023-02-17T06:35:31;5.73;;;4.03;;
16407;SDS011;8313;49.894;8.084;2023-02-17T06:37:57;3.33;;;3.03;;
16407;SDS011;8313;49.894;8.084;2023-02-17T06:40:23;4.67;;;3.83;;
16407;SDS011;8313;49.894;8.084;2023-02-17T06:42:48;4.87;;;3.50;;
16407;SDS011;8313;49.894;8.084;2023-02-17T06:45:14;5.00;;;3.40;;
16407;SDS011;8313;49.894;8.084;2023-02-17T06:47:40;6.90;;;3.57;;
16407;SDS011;8313;49.894;8.084;2023-02-17T06:50:06;3.73;;;2.93;;
16407;SDS011;8313;49.894;8.084;2023-02-17T06:52:32;3.87;;;2.60;;
16407;SDS011;8313;49.894;8.084;2023-02-17T06:54:58;3.87;;;3.30;;
16407;SDS011;8313;49.894;8.084;2023-02-17T06:57:23;4.40;;;3.60;;
16407;SDS011;8313;49.894;8.084;2023-02-17T06:59:49;6.20;;;3.90;;
16407;SDS011;8313;49.894;8.084;2023-02-17T07:02:14;7.50;;;4.30;;
16407;SDS011;8313;49.894;8.084;2023-02-17T07:04:40;6.73;;;3.93;;
16407;SDS011;8313;49.894;8.084;2023-02-17T07:07:07;11.10;;;5.10;;
16407;SDS011;8313;49.894;8.084;2023-02-17T07:09:33;7.97;;;4.20;;
16407;SDS011;8313;49.894;8.084;2023-02-17T07:11:59;6.77;;;4.70;;
16407;SDS011;8313;49.894;8.084;2023-02-17T07:14:25;7.17;;;4.10;;
16407;SDS011;8313;49.894;8.084;2023-02-17T07:16:51;7.80;;;4.20;;
16407;SDS011;8313;49.894;8.084;2023-02-17T07:19:17;6.97;;;3.97;;
16407;SDS011;8313;49.894;8.084;2023-02-17T07:21:43;5.00;;;3.87;;
16407;SDS011;8313;49.894;8.084;2023-02-17T07:24:09;4.90;;;4.10;;
16407;SDS011;8313;49.894;8.084;2023-02-17T07:26:35;7.60;;;5.10;;
16407;SDS011;8313;49.894;8.084;2023-02-17T07:29:03;4.73;;;3.53;;
16407;SDS011;8313;49.894;8.084;2023-02-17T07:31:29;6.00;;;4.40;;
16407;SDS011;8313;49.894;8.084;2023-02-17T07:33:55;8.83;;;4.10;;
16407;SDS011;8313;49.894;8.084;2023-02-17T07:36:21;5.93;;;4.37;;
16407;SDS011;8313;49.894;8.084;2023-02-17T07:38:47;6.50;;;3.70;;
16407;SDS011;8313;49.894;8.084;2023-02-17T07:41:14;3.67;;;3.33;;
16407;SDS011;8313;49.894;8.084;2023-02-17T07:43:41;5.73;;;4.07;;
16407;SDS011;8313;49.894;8.084;2023-02-17T07:46:07;5.20;;;4.20;;
16407;SDS011;8313;49.894;8.084;2023-02-17T07:48:34;5.80;;;4.10;;
16407;SDS011;8313;49.894;8.084;2023-02-17T07:51:05;5.60;;;3.90;;
16407;SDS011;8313;49.894;8.084;2023-02-17T07:53:31;6.80;;;5.33;;
16407;SDS011;8313;49.894;8.084;2023-02-17T07:55:57;5.97;;;4.53;;
16407;SDS011;8313;49.894;8.084;2023-02-17T07:58:22;7.73;;;5.30;;
16407;SDS011;8313;49.894;8.084;2023-02-17T08:00:48;6.50;;;4.50;;
16407;SDS011;8313;49.894;8.084;2023-02-17T08:03:14;5.17;;;4.23;;
16407;SDS011;8313;49.894;8.084;2023-02-17T08:05:39;6.53;;;4.27;;
16407;SDS011;8313;49.894;8.084;2023-02-17T08:08:07;5.80;;;4.20;;
16407;SDS011;8313;49.894;8.084;2023-02-17T08:10:51;5.53;;;4.40;;
16407;SDS011;8313;49.894;8.084;2023-02-17T08:13:35;6.73;;;4.60;;
16407;SDS011;8313;49.894;8.084;2023-02-17T08:16:00;7.17;;;4.27;;
16407;SDS011;8313;49.894;8.084;2023-02-17T08:18:26;5.33;;;4.30;;
16407;SDS011;8313;49.894;8.084;2023-02-17T08:20:52;6.27;;;4.57;;
16407;SDS011;8313;49.894;8.084;2023-02-17T08:23:21;8.37;;;4.67;;
16407;SDS011;8313;49.894;8.084;2023-02-17T08:25:46;4.27;;;3.50;;
16407;SDS011;8313;49.894;8.084;2023-02-17T08:28:12;5.00;;;4.30;;
16407;SDS011;8313;49.894;8.084;2023-02-17T08:30:38;6.10;;;3.73;;
16407;SDS011;8313;49.894;8.084;2023-02-17T08:33:04;6.40;;;4.90;;
16407;SDS011;8313;49.894;8.084;2023-02-17T08:35:30;5.93;;;4.20;;
16407;SDS011;8313;49.894;8.084;2023-02-17T08:37:56;7.40;;;4.80;;
16407;SDS011;8313;49.894;8.084;2023-02-17T08:40:22;5.70;;;4.53;;
16407;SDS011;8313;49.894;8.084;2023-02-17T08:42:48;6.80;;;4.23;;
16407;SDS011;8313;49.894;8.084;2023-02-17T08:45:15;8.40;;;3.77;;
16407;SDS011;8313;49.894;8.084;2023-02-17T08:47:41;6.17;;;4.37;;
16407;SDS011;8313;49.894;8.084;2023-02-17T08:50:07;6.07;;;3.57;;
16407;SDS011;8313;49.894;8.084;2023-02-17T08:52:34;5.87;;;4.07;;
16407;SDS011;8313;49.894;8.084;2023-02-17T08:55:00;11.63;;;4.80;;
16407;SDS011;8313;49.894;8.084;2023-02-17T08:57:26;4.63;;;4.10;;
16407;SDS011;8313;49.894;8.084;2023-02-17T08:59:52;4.73;;;3.93;;
16407;SDS011;8313;49.894;8.084;2023-02-17T09:02:18;10.10;;;7.07;;
16407;SDS011;8313;49.894;8.084;2023-02-17T09:04:44;7.77;;;6.07;;
16407;SDS011;8313;49.894;8.084;2023-02-17T09:07:10;6.40;;;4.50;;
16407;SDS011;8313;49.894;8.084;2023-02-17T09:09:39;10.30;;;7.53;;
16407;SDS011;8313;49.894;8.084;2023-02-17T09:12:05;9.10;;;8.03;;
16407;SDS011;8313;49.894;8.084;2023-02-17T09:14:31;7.33;;;6.37;;
16407;SDS011;8313;49.894;8.084;2023-02-17T09:16:56;6.30;;;5.07;;
16407;SDS011;8313;49.894;8.084;2023-02-17T09:19:23;7.70;;;5.37;;
16407;SDS011;8313;49.894;8.084;2023-02-17T09:21:49;5.90;;;4.57;;
16407;SDS011;8313;49.894;8.084;2023-02-17T09:24:16;6.70;;;5.60;;
16407;SDS011;8313;49.894;8.084;2023-02-17T09:26:42;16.37;;;10.80;;
16407;SDS011;8313;49.894;8.084;2023-02-17T09:29:07;11.33;;;7.63;;
16407;SDS011;8313;49.894;8.084;2023-02-17T09:31:34;7.83;;;5.70;;
16407;SDS011;8313;49.894;8.084;2023-02-17T09:34:00;8.00;;;5.53;;
16407;SDS011;8313;49.894;8.084;2023-02-17T09:36:27;6.00;;;4.53;;
16407;SDS011;8313;49.894;8.084;2023-02-17T09:38:58;6.27;;;4.77;;
16407;SDS011;8313;49.894;8.084;2023-02-17T09:44:24;7.83;;;4.87;;
16407;SDS011;8313;49.894;8.084;2023-02-17T09:47:04;6.13;;;4.43;;
16407;SDS011;8313;49.894;8.084;2023-02-17T09:50:27;6.20;;;5.00;;
16407;SDS011;8313;49.894;8.084;2023-02-17T09:52:50;5.73;;;4.07;;
16407;SDS011;8313;49.894;8.084;2023-02-17T09:55:43;7.43;;;4.77;;
16407;SDS011;8313;49.894;8.084;2023-02-17T09:58:15;11.10;;;5.43;;
16407;SDS011;8313;49.894;8.084;2023-02-17T10:00:53;6.07;;;4.73;;
16407;SDS011;8313;49.894;8.084;2023-02-17T10:12:03;5.47;;;4.13;;
16407;SDS011;8313;49.894;8.084;2023-02-17T10:14:41;5.40;;;3.87;;
16407;SDS011;8313;49.894;8.084;2023-02-17T10:17:33;5.10;;;3.93;;
16407;SDS011;8313;49.894;8.084;2023-02-17T10:20:11;5.07;;;3.67;;
16407;SDS011;8313;49.894;8.084;2023-02-17T10:22:41;5.07;;;4.20;;
16407;SDS011;8313;49.894;8.084;2023-02-17T10:25:17;6.10;;;5.00;;
16407;SDS011;8313;49.894;8.084;2023-02-17T10:30:37;4.70;;;3.83;;
16407;SDS011;8313;49.894;8.084;2023-02-17T10:41:31;4.70;;;3.53;;
16407;SDS011;8313;49.894;8.084;2023-02-17T10:44:00;5.23;;;2.97;;
16407;SDS011;8313;49.894;8.084;2023-02-17T10:46:30;6.13;;;3.63;;
16407;SDS011;8313;49.894;8.084;2023-02-17T10:48:56;3.33;;;3.03;;
16407;SDS011;8313;49.894;8.084;2023-02-17T10:51:24;5.60;;;3.90;;
16407;SDS011;8313;49.894;8.084;2023-02-17T10:53:56;4.77;;;3.23;;
16407;SDS011;8313;49.894;8.084;2023-02-17T10:56:40;4.83;;;3.63;;
16407;SDS011;8313;49.894;8.084;2023-02-17T10:59:21;3.43;;;3.13;;
16407;SDS011;8313;49.894;8.084;2023-02-17T11:01:55;3.70;;;3.10;;
16407;SDS011;8313;49.894;8.084;2023-02-17T11:04:41;4.00;;;3.03;;
16407;SDS011;8313;49.894;8.084;2023-02-17T11:07:10;4.50;;;3.10;;
16407;SDS011;8313;49.894;8.084;2023-02-17T11:09:38;3.97;;;3.10;;
16407;SDS011;8313;49.894;8.084;2023-02-17T11:12:17;4.90;;;3.40;;
16407;SDS011;8313;49.894;8.084;2023-02-17T11:14:49;4.80;;;3.23;;
16407;SDS011;8313;49.894;8.084;2023-02-17T11:17:33;3.93;;;3.03;;
16407;SDS011;8313;49.894;8.084;2023-02-17T11:20:07;5.03;;;3.83;;
16407;SDS011;8313;49.894;8.084;2023-02-17T11:22:40;5.77;;;4.13;;
16407;SDS011;8313;49.894;8.084;2023-02-17T11:25:29;5.17;;;4.33;;
16407;SDS011;8313;49.894;8.084;2023-02-17T11:28:20;6.40;;;4.80;;
16407;SDS011;8313;49.894;8.084;2023-02-17T11:30:48;5.70;;;4.47;;
16407;SDS011;8313;49.894;8.084;2023-02-17T11:33:20;4.03;;;3.50;;
16407;SDS011;8313;49.894;8.084;2023-02-17T11:35:52;5.23;;;4.10;;
16407;SDS011;8313;49.894;8.084;2023-02-17T11:38:21;3.30;;;2.90;;
16407;SDS011;8313;49.894;8.084;2023-02-17T11:43:18;4.77;;;3.07;;
16407;SDS011;8313;49.894;8.084;2023-02-17T11:48:54;4.60;;;3.40;;
16407;SDS011;8313;49.894;8.084;2023-02-17T11:54:22;3.20;;;2.67;;
16407;SDS011;8313;49.894;8.084;2023-02-17T11:59:51;3.70;;;2.50;;
16407;SDS011;8313;49.894;8.084;2023-02-17T12:05:19;3.07;;;2.00;;
16407;SDS011;8313;49.894;8.084;2023-02-17T12:10:36;3.17;;;2.47;;
16407;SDS011;8313;49.894;8.084;2023-02-17T12:21:37;2.33;;;1.80;;
16407;SDS011;8313;49.894;8.084;2023-02-17T12:24:18;2.40;;;2.20;;
16407;SDS011;8313;49.894;8.084;2023-02-17T12:29:37;1.90;;;1.80;;
16407;SDS011;8313;49.894;8.084;2023-02-17T12:35:24;4.90;;;4.40;;
16407;SDS011;8313;49.894;8.084;2023-02-17T12:37:56;6.57;;;5.20;;
16407;SDS011;8313;49.894;8.084;2023-02-17T12:40:39;9.73;;;5.47;;
16407;SDS011;8313;49.894;8.084;2023-02-17T12:45:58;19.90;;;15.10;;
16407;SDS011;8313;49.894;8.084;2023-02-17T12:48:37;11.23;;;8.50;;
16407;SDS011;8313;49.894;8.084;2023-02-17T12:59:42;2.60;;;2.10;;
16407;SDS011;8313;49.894;8.084;2023-02-17T13:04:43;2.20;;;1.80;;
16407;SDS011;8313;49.894;8.084;2023-02-17T13:10:20;2.97;;;2.40;;
16407;SDS011;8313;49.894;8.084;2023-02-17T13:12:56;2.60;;;2.40;;
16407;SDS011;8313;49.894;8.084;2023-02-17T13:15:46;2.40;;;2.20;;
16407;SDS011;8313;49.894;8.084;2023-02-17T13:18:13;2.20;;;1.90;;
16407;SDS011;8313;49.894;8.084;2023-02-17T13:23:27;2.60;;;2.40;;
16407;SDS011;8313;49.894;8.084;2023-02-17T13:28:48;2.57;;;2.37;;
16407;SDS011;8313;49.894;8.084;2023-02-17T13:33:43;2.00;;;1.90;;
16407;SDS011;8313;49.894;8.084;2023-02-17T13:36:10;1.70;;;1.60;;
16407;SDS011;8313;49.894;8.084;2023-02-17T13:41:23;1.27;;;1.17;;
16407;SDS011;8313;49.894;8.084;2023-02-17T13:43:50;1.37;;;1.17;;
16407;SDS011;8313;49.894;8.084;2023-02-17T13:46:18;1.40;;;1.30;;
16407;SDS011;8313;49.894;8.084;2023-02-17T13:48:57;0.90;;;0.90;;
16407;SDS011;8313;49.894;8.084;2023-02-17T13:51:28;1.60;;;1.50;;
16407;SDS011;8313;49.894;8.084;2023-02-17T13:53:56;1.80;;;1.57;;
16407;SDS011;8313;49.894;8.084;2023-02-17T13:56:29;1.50;;;1.40;;
16407;SDS011;8313;49.894;8.084;2023-02-17T13:59:07;1.40;;;1.30;;
16407;SDS011;8313;49.894;8.084;2023-02-17T14:01:36;1.50;;;1.33;;
16407;SDS011;8313;49.894;8.084;2023-02-17T14:04:15;1.77;;;1.67;;
16407;SDS011;8313;49.894;8.084;2023-02-17T14:06:55;2.67;;;1.50;;
16407;SDS011;8313;49.894;8.084;2023-02-17T14:09:29;1.43;;;1.33;;
16407;SDS011;8313;49.894;8.084;2023-02-17T14:11:57;1.87;;;1.20;;
16407;SDS011;8313;49.894;8.084;2023-02-17T14:14:28;1.23;;;1.13;;
16407;SDS011;8313;49.894;8.084;2023-02-17T14:19:39;1.37;;;1.27;;
16407;SDS011;8313;49.894;8.084;2023-02-17T14:22:20;1.10;;;1.00;;
16407;SDS011;8313;49.894;8.084;2023-02-17T14:24:58;1.53;;;1.43;;
16407;SDS011;8313;49.894;8.084;2023-02-17T14:27:26;5.10;;;3.03;;
16407;SDS011;8313;49.894;8.084;2023-02-17T14:29:51;2.60;;;2.50;;
16407;SDS011;8313;49.894;8.084;2023-02-17T14:35:05;3.93;;;3.53;;
16407;SDS011;8313;49.894;8.084;2023-02-17T14:37:44;8.10;;;7.30;;
16407;SDS011;8313;49.894;8.084;2023-02-17T14:40:20;2.87;;;2.67;;
16407;SDS011;8313;49.894;8.084;2023-02-17T14:42:47;2.87;;;2.63;;
16407;SDS011;8313;49.894;8.084;2023-02-17T14:45:13;3.40;;;2.30;;
16407;SDS011;8313;49.894;8.084;2023-02-17T14:47:43;1.53;;;1.43;;
16407;SDS011;8313;49.894;8.084;2023-02-17T14:50:09;1.70;;;1.60;;
16407;SDS011;8313;49.894;8.084;2023-02-17T14:52:41;2.20;;;1.93;;
16407;SDS011;8313;49.894;8.084;2023-02-17T14:57:47;2.20;;;1.70;;
16407;SDS011;8313;49.894;8.084;2023-02-17T15:00:13;2.00;;;1.63;;
16407;SDS011;8313;49.894;8.084;2023-02-17T15:02:39;1.90;;;1.30;;
16407;SDS011;8313;49.894;8.084;2023-02-17T15:05:05;1.80;;;1.50;;
16407;SDS011;8313;49.894;8.084;2023-02-17T15:07:31;2.10;;;1.63;;
16407;SDS011;8313;49.894;8.084;2023-02-17T15:09:57;2.87;;;1.50;;
16407;SDS011;8313;49.894;8.084;2023-02-17T15:12:23;1.53;;;1.40;;
16407;SDS011;8313;49.894;8.084;2023-02-17T15:14:49;1.87;;;1.70;;
16407;SDS011;8313;49.894;8.084;2023-02-17T15:17:15;1.77;;;1.47;;
16407;SDS011;8313;49.894;8.084;2023-02-17T15:19:41;2.47;;;1.53;;
16407;SDS011;8313;49.894;8.084;2023-02-17T15:22:12;6.37;;;2.80;;
16407;SDS011;8313;49.894;8.084;2023-02-17T15:24:38;1.40;;;1.30;;
16407;SDS011;8313;49.894;8.084;2023-02-17T15:27:05;1.43;;;1.33;;
16407;SDS011;8313;49.894;8.084;2023-02-17T15:29:31;1.63;;;1.50;;
16407;SDS011;8313;49.894;8.084;2023-02-17T15:32:00;2.43;;;1.53;;
16407;SDS011;8313;49.894;8.084;2023-02-17T15:34:30;2.77;;;1.80;;
16407;SDS011;8313;49.894;8.084;2023-02-17T15:36:57;1.60;;;1.50;;
16407;SDS011;8313;49.894;8.084;2023-02-17T15:39:23;2.07;;;1.60;;
16407;SDS011;8313;49.894;8.084;2023-02-17T15:41:49;1.60;;;1.50;;
16407;SDS011;8313;49.894;8.084;2023-02-17T15:44:18;5.43;;;4.93;;
16407;SDS011;8313;49.894;8.084;2023-02-17T15:46:50;5.03;;;4.47;;
16407;SDS011;8313;49.894;8.084;2023-02-17T15:49:18;4.70;;;3.87;;
16407;SDS011;8313;49.894;8.084;2023-02-17T15:51:44;7.50;;;4.33;;
16407;SDS011;8313;49.894;8.084;2023-02-17T15:54:10;3.27;;;2.97;;
16407;SDS011;8313;49.894;8.084;2023-02-17T15:56:41;4.50;;;3.70;;
16407;SDS011;8313;49.894;8.084;2023-02-17T15:59:14;5.10;;;4.13;;
16407;SDS011;8313;49.894;8.084;2023-02-17T16:01:42;3.57;;;3.17;;
16407;SDS011;8313;49.894;8.084;2023-02-17T16:04:09;2.40;;;2.20;;
16407;SDS011;8313;49.894;8.084;2023-02-17T16:06:36;1.80;;;1.70;;
16407;SDS011;8313;49.894;8.084;2023-02-17T16:09:02;2.13;;;1.50;;
16407;SDS011;8313;49.894;8.084;2023-02-17T16:11:29;2.13;;;1.97;;
16407;SDS011;8313;49.894;8.084;2023-02-17T16:13:55;1.37;;;1.27;;
16407;SDS011;8313;49.894;8.084;2023-02-17T16:16:24;2.77;;;1.47;;
16407;SDS011;8313;49.894;8.084;2023-02-17T16:18:53;1.73;;;1.40;;
16407;SDS011;8313;49.894;8.084;2023-02-17T16:21:19;1.93;;;1.57;;
16407;SDS011;8313;49.894;8.084;2023-02-17T16:23:45;2.70;;;1.30;;
16407;SDS011;8313;49.894;8.084;2023-02-17T16:26:27;15.80;;;12.00;;
16407;SDS011;8313;49.894;8.084;2023-02-17T16:28:55;7.13;;;5.70;;
16407;SDS011;8313;49.894;8.084;2023-02-17T16:31:21;1.80;;;1.70;;
16407;SDS011;8313;49.894;8.084;2023-02-17T16:33:47;1.77;;;1.67;;
16407;SDS011;8313;49.894;8.084;2023-02-17T16:36:14;1.43;;;1.33;;
16407;SDS011;8313;49.894;8.084;2023-02-17T16:38:44;3.03;;;2.83;;
16407;SDS011;8313;49.894;8.084;2023-02-17T16:41:15;4.20;;;1.83;;
16407;SDS011;8313;49.894;8.084;2023-02-17T16:43:42;1.90;;;1.50;;
16407;SDS011;8313;49.894;8.084;2023-02-17T16:46:16;1.67;;;1.57;;
16407;SDS011;8313;49.894;8.084;2023-02-17T16:48:53;1.97;;;1.43;;
16407;SDS011;8313;49.894;8.084;2023-02-17T16:51:20;2.10;;;2.00;;
16407;SDS011;8313;49.894;8.084;2023-02-17T16:53:46;1.50;;;1.40;;
16407;SDS011;8313;49.894;8.084;2023-02-17T16:56:13;1.80;;;1.63;;
16407;SDS011;8313;49.894;8.084;2023-02-17T16:58:46;1.00;;;1.00;;
16407;SDS011;8313;49.894;8.084;2023-02-17T17:01:12;1.67;;;1.57;;
16407;SDS011;8313;49.894;8.084;2023-02-17T17:03:39;1.53;;;1.43;;
16407;SDS011;8313;49.894;8.084;2023-02-17T17:06:25;1.47;;;1.37;;